Time;durP1;ratioP1;P1;durP2;ratioP2;P2;SDS_P1;SDS_P2;PMS_P1;PMS_P2;Temp;Humidity;BMP_temperature;BMP_pressure;BME280_temperature;BME280_humidity;BME280_pressure;Samples;Min_cycle;Max_cycle;Signal;HPM_P1;HPM_P2
2023/08/12 00:00:48;;;;;;;3.85;1.50;;;;;;;20.45;84.51;101815.16;4996684;28;96557;-27
2023/08/12 00:03:13;;;;;;;3.72;1.42;;;;;;;20.47;83.89;101813.13;4996974;28;96990;-27
2023/08/12 00:05:39;;;;;;;4.57;1.90;;;;;;;20.51;84.22;101817.38;4995780;28;99241;-27
2023/08/12 00:08:05;;;;;;;5.43;1.70;;;;;;;20.51;84.05;101806.38;4994591;28;100765;-27
2023/08/12 00:10:31;;;;;;;4.47;1.73;;;;;;;20.48;84.34;101798.38;4996174;28;96638;-27
2023/08/12 00:12:57;;;;;;;7.60;2.20;;;;;;;20.45;84.84;101796.78;4996524;28;96788;-27
2023/08/12 00:15:22;;;;;;;3.88;1.75;;;;;;;20.47;84.27;101793.88;4996218;28;97447;-27
2023/08/12 00:17:47;;;;;;;4.47;1.80;;;;;;;20.45;84.22;101802.28;4996113;28;97475;-27
2023/08/12 00:20:13;;;;;;;4.80;2.13;;;;;;;20.50;84.37;101801.88;4996172;28;96675;-27
2023/08/12 00:22:39;;;;;;;5.15;1.90;;;;;;;20.49;84.11;101797.38;4996103;28;96866;-27
2023/08/12 00:25:06;;;;;;;6.28;2.03;;;;;;;20.48;85.32;101801.13;4994603;28;101000;-27
2023/08/12 00:27:31;;;;;;;4.35;1.90;;;;;;;20.45;84.08;101791.28;4994938;28;100963;-27
2023/08/12 00:29:57;;;;;;;2.97;1.80;;;;;;;20.43;84.54;101782.28;4996470;28;96476;-27
2023/08/12 00:32:22;;;;;;;4.78;2.08;;;;;;;20.47;84.15;101785.63;4996323;28;96800;-27
2023/08/12 00:34:48;;;;;;;8.40;3.08;;;;;;;20.44;84.23;101774.88;4995221;28;98043;-27
2023/08/12 00:37:13;;;;;;;6.45;2.42;;;;;;;20.45;84.52;101779.38;4995525;28;97546;-27
2023/08/12 00:39:38;;;;;;;8.05;2.33;;;;;;;20.45;85.68;101777.50;4996440;28;96484;-27
2023/08/12 00:42:04;;;;;;;7.78;2.78;;;;;;;20.41;84.93;101770.53;4996031;28;96798;-27
2023/08/12 00:44:29;;;;;;;5.93;2.30;;;;;;;20.46;84.56;101776.50;4995602;28;98996;-27
2023/08/12 00:46:55;;;;;;;4.97;2.00;;;;;;;20.47;84.40;101775.47;4995500;28;99099;-26
2023/08/12 00:49:22;;;;;;;7.68;2.50;;;;;;;20.46;84.48;101759.97;4995529;28;96567;-27
2023/08/12 00:51:49;;;;;;;6.75;2.28;;;;;;;20.44;84.70;101761.13;4994834;28;96862;-27
2023/08/12 00:54:16;;;;;;;4.80;2.13;;;;;;;20.42;84.62;101757.63;4977591;28;101158;-27
2023/08/12 00:56:42;;;;;;;4.18;2.08;;;;;;;20.42;84.52;101755.75;4995378;28;97817;-27
2023/08/12 00:59:09;;;;;;;6.32;1.90;;;;;;;20.46;84.53;101762.72;4993846;28;96794;-27
2023/08/12 01:01:35;;;;;;;5.70;2.08;;;;;;;20.44;85.44;101763.88;4994377;28;96633;-27
2023/08/12 01:04:00;;;;;;;7.32;3.33;;;;;;;20.40;85.68;101752.25;4993538;28;101480;-27
2023/08/12 01:06:26;;;;;;;7.43;2.53;;;;;;;20.36;86.25;101762.69;4994820;28;97733;-27
2023/08/12 01:08:53;;;;;;;7.25;2.97;;;;;;;20.39;86.14;101755.16;4994186;28;96592;-27
2023/08/12 01:11:18;;;;;;;11.77;3.65;;;;;;;20.40;86.30;101755.00;4994128;28;96977;-28
2023/08/12 01:14:02;;;;;;;7.88;2.95;;;;;;;20.38;86.30;101746.03;4995114;28;99273;-27
2023/08/12 01:16:32;;;;;;;4.38;2.50;;;;;;;20.37;86.91;101742.38;4993968;28;101190;-27
2023/08/12 01:19:00;;;;;;;6.57;2.65;;;;;;;20.39;86.73;101744.16;4994110;28;97301;-28
2023/08/12 01:21:29;;;;;;;6.93;2.88;;;;;;;20.40;86.39;101738.50;4993954;28;96815;-27
2023/08/12 01:23:55;;;;;;;5.10;2.60;;;;;;;20.43;86.75;101737.38;4993011;28;101272;-28
2023/08/12 01:26:20;;;;;;;5.13;2.35;;;;;;;20.43;86.12;101726.38;4993516;28;101239;-27
2023/08/12 01:28:46;;;;;;;4.13;2.17;;;;;;;20.43;86.29;101731.88;4995283;28;96528;-27
2023/08/12 01:31:18;;;;;;;5.30;2.28;;;;;;;20.45;85.62;101727.97;4995359;28;96831;-27
2023/08/12 01:33:56;;;;;;;4.30;2.22;;;;;;;20.43;86.25;101720.88;4993371;28;101403;-27
2023/08/12 01:36:26;;;;;;;7.28;2.45;;;;;;;20.43;85.90;101718.09;4993416;28;101365;-27
2023/08/12 01:38:56;;;;;;;5.55;2.85;;;;;;;20.48;86.04;101724.06;4993518;28;96966;-27
2023/08/12 01:41:23;;;;;;;5.80;2.72;;;;;;;20.45;86.88;101719.72;4995061;28;96822;-27
2023/08/12 01:43:48;;;;;;;5.80;2.47;;;;;;;20.45;86.82;101724.31;4993205;28;100999;-27
2023/08/12 01:46:14;;;;;;;3.70;2.05;;;;;;;20.43;86.91;101716.22;4994810;28;97430;-27
2023/08/12 01:48:39;;;;;;;6.60;2.92;;;;;;;20.44;86.96;101706.09;4994545;28;96603;-27
2023/08/12 01:51:05;;;;;;;8.05;2.97;;;;;;;20.46;87.01;101709.56;4994774;28;96813;-27
2023/08/12 01:53:31;;;;;;;5.53;3.13;;;;;;;20.45;87.50;101714.22;4994480;28;99358;-27
2023/08/12 01:55:56;;;;;;;6.22;2.75;;;;;;;20.46;86.80;101710.44;4994550;28;97266;-27
2023/08/12 01:58:21;;;;;;;6.05;3.20;;;;;;;20.45;86.74;101703.19;4995050;28;96493;-27
2023/08/12 02:00:47;;;;;;;5.40;2.78;;;;;;;20.42;86.75;101700.69;4995021;28;96845;-27
2023/08/12 02:03:12;;;;;;;7.88;2.60;;;;;;;20.46;86.60;101698.56;4994607;28;97898;-27
2023/08/12 02:05:37;;;;;;;7.65;2.50;;;;;;;20.48;86.55;101710.31;4994650;28;97301;-27
2023/08/12 02:08:04;;;;;;;5.28;2.42;;;;;;;20.44;87.13;101698.69;4994648;28;96741;-27
2023/08/12 02:10:30;;;;;;;4.88;2.75;;;;;;;20.46;86.60;101693.91;4993068;28;96956;-27
2023/08/12 02:12:55;;;;;;;5.07;2.72;;;;;;;20.48;87.38;101696.53;4993650;28;99039;-27
2023/08/12 02:15:20;;;;;;;4.45;2.70;;;;;;;20.44;87.31;101697.81;4994831;28;98702;-29
2023/08/12 02:17:46;;;;;;;5.30;2.85;;;;;;;20.41;87.53;101698.97;4998111;28;96507;-28
2023/08/12 02:20:11;;;;;;;5.75;3.35;;;;;;;20.44;88.01;101700.56;4998321;28;96842;-27
2023/08/12 02:22:37;;;;;;;5.70;3.10;;;;;;;20.41;88.36;101698.97;4997664;28;99840;-27
2023/08/12 02:25:02;;;;;;;6.82;2.85;;;;;;;20.41;88.10;101690.72;4997953;28;97271;-27
2023/08/12 02:27:27;;;;;;;6.63;3.25;;;;;;;20.37;87.75;101684.59;4998445;28;96628;-27
2023/08/12 02:29:53;;;;;;;9.13;2.70;;;;;;;20.40;88.58;101686.19;4998293;28;96875;-27
2023/08/12 02:32:18;;;;;;;8.95;3.20;;;;;;;20.40;88.78;101688.94;4997690;28;98499;-27
2023/08/12 02:34:44;;;;;;;6.97;3.05;;;;;;;20.36;89.85;101684.75;4997854;28;97852;-28
2023/08/12 02:37:09;;;;;;;7.63;2.95;;;;;;;20.37;90.13;101684.59;4997231;28;96896;-28
2023/08/12 02:39:35;;;;;;;6.15;2.60;;;;;;;20.30;90.01;101668.78;4997771;28;96834;-27
2023/08/12 02:42:00;;;;;;;6.22;3.28;;;;;;;20.32;90.15;101678.63;4996018;28;98266;-28
2023/08/12 02:44:25;;;;;;;7.82;3.50;;;;;;;20.34;89.79;101678.50;4997508;28;97031;-27
2023/08/12 02:46:51;;;;;;;9.30;3.28;;;;;;;20.32;89.28;101666.78;4996606;28;96595;-26
2023/08/12 02:49:16;;;;;;;6.03;3.10;;;;;;;20.32;89.94;101664.88;4997898;28;96822;-27
2023/08/12 02:51:41;;;;;;;8.27;2.92;;;;;;;20.31;90.33;101663.16;4997683;28;97410;-27
2023/08/12 02:54:07;;;;;;;9.80;3.30;;;;;;;20.32;91.81;101667.63;4997809;28;97855;-27
2023/08/12 02:56:32;;;;;;;8.45;3.80;;;;;;;20.31;90.48;101656.78;4997544;28;96773;-27
2023/08/12 02:58:58;;;;;;;4.70;2.83;;;;;;;20.29;92.64;101658.81;4997755;28;96752;-27
2023/08/12 03:01:24;;;;;;;8.38;3.03;;;;;;;20.23;91.70;101649.19;4996885;28;97949;-27
2023/08/12 03:03:50;;;;;;;6.25;3.25;;;;;;;20.24;92.36;101656.47;4995646;28;100966;-27
2023/08/12 03:06:15;;;;;;;5.68;3.20;;;;;;;20.25;92.12;101651.81;4996454;28;96730;-28
2023/08/12 03:08:41;;;;;;;4.50;2.83;;;;;;;20.26;92.06;101654.44;4995808;28;96873;-27
2023/08/12 03:11:06;;;;;;;7.85;2.58;;;;;;;20.27;91.73;101642.41;4997018;28;98018;-27
2023/08/12 03:13:31;;;;;;;5.38;2.40;;;;;;;20.28;91.30;101644.16;4997063;28;97765;-27
2023/08/12 03:15:57;;;;;;;6.97;3.10;;;;;;;20.28;91.82;101635.88;4997750;28;96634;-28
2023/08/12 03:18:22;;;;;;;5.15;2.70;;;;;;;20.29;92.20;101637.66;4997657;28;96799;-27
2023/08/12 03:20:48;;;;;;;10.07;2.90;;;;;;;20.25;93.09;101616.06;4996824;28;99504;-27
2023/08/12 03:23:14;;;;;;;5.30;3.08;;;;;;;20.29;92.06;101612.88;4995415;28;101293;-27
2023/08/12 03:25:39;;;;;;;4.63;2.72;;;;;;;20.28;91.29;101610.25;4995014;28;96693;-27
2023/08/12 03:28:05;;;;;;;5.72;3.13;;;;;;;20.28;91.57;101619.38;4996016;28;96929;-27
2023/08/12 03:30:31;;;;;;;6.18;3.42;;;;;;;20.26;91.03;101615.94;4996955;28;97435;-27
2023/08/12 03:32:56;;;;;;;5.82;3.35;;;;;;;20.23;94.22;101627.19;4996791;28;97815;-28
2023/08/12 03:35:22;;;;;;;7.53;3.38;;;;;;;20.20;93.36;101638.47;4997335;28;96841;-28
2023/08/12 03:37:47;;;;;;;6.63;3.30;;;;;;;20.22;93.14;101635.59;4996790;28;96535;-27
2023/08/12 03:40:12;;;;;;;7.53;3.22;;;;;;;20.12;93.49;101625.41;4996586;28;96799;-26
2023/08/12 03:42:38;;;;;;;7.10;3.22;;;;;;;20.14;94.09;101626.16;4997005;28;97712;-27
2023/08/12 03:45:04;;;;;;;7.43;3.47;;;;;;;20.14;95.35;101626.16;4996742;28;96559;-27
2023/08/12 03:47:29;;;;;;;10.00;3.25;;;;;;;20.07;95.50;101611.22;4997163;28;96816;-28
2023/08/12 03:49:55;;;;;;;7.05;3.60;;;;;;;20.12;95.08;101610.81;4995751;28;99574;-26
2023/08/12 03:52:20;;;;;;;7.13;3.38;;;;;;;20.10;95.24;101607.31;4996271;28;99154;-27
2023/08/12 03:54:46;;;;;;;7.40;2.92;;;;;;;20.14;93.87;101611.50;4996724;28;96652;-27
2023/08/12 03:57:11;;;;;;;4.63;2.85;;;;;;;20.14;95.23;101608.75;4996660;28;96788;-28
2023/08/12 03:59:37;;;;;;;6.80;2.90;;;;;;;20.10;95.03;101593.56;4996071;28;99395;-27
2023/08/12 04:02:03;;;;;;;7.03;3.42;;;;;;;20.11;94.49;101595.28;4996349;28;97262;-27
2023/08/12 04:04:29;;;;;;;5.22;2.88;;;;;;;20.11;95.84;101590.66;4996564;28;96608;-27
2023/08/12 04:06:54;;;;;;;7.60;2.95;;;;;;;20.09;95.86;101589.03;4996297;28;99210;-27
2023/08/12 04:09:20;;;;;;;6.05;3.00;;;;;;;20.11;96.20;101578.78;4996117;28;97466;-27
2023/08/12 04:11:46;;;;;;;5.28;2.88;;;;;;;20.10;95.83;101588.06;4996362;28;98056;-27
2023/08/12 04:14:14;;;;;;;4.97;2.70;;;;;;;20.06;95.13;101579.19;4994426;28;96506;-27
2023/08/12 04:16:40;;;;;;;6.50;3.15;;;;;;;20.10;95.27;101575.16;4996168;28;96792;-27
2023/08/12 04:19:05;;;;;;;8.75;3.60;;;;;;;20.06;94.86;101565.44;4996205;28;97977;-27
2023/08/12 04:21:31;;;;;;;6.72;3.40;;;;;;;20.11;95.88;101565.03;4996037;28;97302;-26
2023/08/12 04:23:56;;;;;;;6.07;3.42;;;;;;;20.11;94.64;101559.53;4995984;28;96659;-27
2023/08/12 04:26:21;;;;;;;7.65;3.03;;;;;;;20.06;95.45;101546.19;4996189;28;96878;-27
2023/08/12 04:28:47;;;;;;;4.25;3.03;;;;;;;20.09;95.64;101547.78;4995980;28;97592;-27
2023/08/12 04:31:12;;;;;;;5.13;3.10;;;;;;;20.08;95.89;101540.56;4996067;28;99157;-28
2023/08/12 04:33:37;;;;;;;6.10;2.65;;;;;;;20.09;95.05;101554.19;4996016;28;96473;-27
2023/08/12 04:36:03;;;;;;;4.45;2.72;;;;;;;20.10;94.92;101546.78;4996060;28;96759;-27
2023/08/12 04:38:28;;;;;;;4.55;2.42;;;;;;;20.07;97.12;101547.94;4994365;28;99747;-27
2023/08/12 04:40:56;;;;;;;5.38;2.67;;;;;;;20.08;95.18;101548.81;4995692;28;97942;-27
2023/08/12 04:43:21;;;;;;;6.28;2.55;;;;;;;20.08;95.00;101543.31;4995860;28;96459;-27
2023/08/12 04:45:47;;;;;;;5.70;2.80;;;;;;;20.06;94.70;101540.69;4996118;28;96717;-27
2023/08/12 04:48:12;;;;;;;5.45;2.67;;;;;;;20.11;95.06;101543.03;4995355;28;99503;-27
2023/08/12 04:50:38;;;;;;;6.57;2.15;;;;;;;20.10;95.77;101549.56;4995419;28;99632;-27
2023/08/12 04:53:07;;;;;;;6.05;2.70;;;;;;;20.12;95.47;101544.78;4994509;28;97020;-27
2023/08/12 04:55:34;;;;;;;7.50;2.50;;;;;;;20.11;95.58;101538.38;4996269;28;96576;-27
2023/08/12 04:57:59;;;;;;;4.00;2.08;;;;;;;20.15;95.29;101544.50;4993928;28;101074;-27
2023/08/12 05:00:25;;;;;;;4.53;2.15;;;;;;;20.08;95.27;101535.06;4995494;28;97960;-27
2023/08/12 05:02:51;;;;;;;4.97;2.20;;;;;;;20.07;97.63;101541.56;4993665;28;96692;-27
2023/08/12 05:05:16;;;;;;;4.60;2.17;;;;;;;20.05;95.55;101533.47;4995423;28;96689;-27
2023/08/12 05:07:41;;;;;;;6.82;2.33;;;;;;;20.05;96.14;101529.84;4994798;28;97910;-28
2023/08/12 05:10:07;;;;;;;5.32;2.33;;;;;;;20.08;96.30;101535.06;4995401;28;97769;-27
2023/08/12 05:12:32;;;;;;;4.22;2.20;;;;;;;20.06;94.93;101526.94;4995540;28;96507;-27
2023/08/12 05:14:58;;;;;;;4.55;2.28;;;;;;;20.07;96.35;101536.06;4995651;28;96773;-27
2023/08/12 05:17:23;;;;;;;4.18;2.00;;;;;;;20.08;96.04;101543.31;4995154;28;97401;-30
2023/08/12 05:19:48;;;;;;;4.32;1.95;;;;;;;20.04;96.15;101536.34;4995917;28;97238;-27
2023/08/12 05:22:14;;;;;;;3.50;2.15;;;;;;;20.02;95.49;101536.50;4995495;28;96715;-28
2023/08/12 05:24:39;;;;;;;5.05;2.28;;;;;;;20.02;96.71;101546.59;4995600;28;96789;-27
2023/08/12 05:27:04;;;;;;;6.18;2.10;;;;;;;20.02;96.60;101547.50;4994565;28;97397;-27
2023/08/12 05:29:33;;;;;;;3.03;1.92;;;;;;;20.01;96.40;101556.75;4995042;28;98492;-26
2023/08/12 05:31:58;;;;;;;4.97;1.77;;;;;;;20.03;97.14;101565.72;4995400;28;96500;-27
2023/08/12 05:34:23;;;;;;;5.30;2.28;;;;;;;20.02;98.05;101574.09;4995272;28;96761;-27
2023/08/12 05:36:49;;;;;;;6.55;2.55;;;;;;;19.98;98.64;101567.16;4994749;28;97861;-27
2023/08/12 05:39:15;;;;;;;5.03;1.77;;;;;;;19.92;98.92;101569.44;4993382;28;100783;-27
2023/08/12 05:41:40;;;;;;;2.78;1.42;;;;;;;19.88;99.82;101570.75;4995151;28;96658;-28
2023/08/12 05:44:06;;;;;;;1.88;1.25;;;;;;;19.83;100.00;101548.28;4995552;28;96764;-28
2023/08/12 05:46:31;;;;;;;3.35;1.23;;;;;;;19.82;99.23;101540.16;4994993;28;97371;-27
2023/08/12 05:48:57;;;;;;;3.00;1.50;;;;;;;19.85;99.24;101556.38;4994516;28;99301;-27
2023/08/12 05:51:22;;;;;;;2.78;1.35;;;;;;;19.79;99.21;101546.81;4993524;28;96476;-27
2023/08/12 05:53:48;;;;;;;1.73;1.02;;;;;;;19.83;98.74;101553.78;4995085;28;96772;-27
2023/08/12 05:56:13;;;;;;;1.98;1.08;;;;;;;19.81;100.00;101552.19;4993124;28;101419;-28
2023/08/12 05:58:39;;;;;;;1.63;0.98;;;;;;;19.77;99.78;101548.81;4994641;28;97788;-27
2023/08/12 06:01:04;;;;;;;2.03;0.95;;;;;;;19.80;98.93;101537.53;4994845;28;96724;-27
2023/08/12 06:03:29;;;;;;;1.85;1.17;;;;;;;19.85;99.52;101540.75;4995067;28;96861;-27
2023/08/12 06:05:55;;;;;;;1.67;0.82;;;;;;;19.84;98.66;101550.00;4994093;28;99157;-28
2023/08/12 06:08:20;;;;;;;1.10;0.75;;;;;;;19.84;98.49;101546.41;4994518;28;97877;-27
2023/08/12 06:10:46;;;;;;;0.93;0.75;;;;;;;19.90;99.01;101549.47;4994614;28;96649;-27
2023/08/12 06:13:11;;;;;;;2.00;0.77;;;;;;;19.85;98.87;101539.88;4994851;28;96907;-27
2023/08/12 06:15:36;;;;;;;3.00;0.80;;;;;;;19.92;98.33;101541.06;4993896;28;97962;-28
2023/08/12 06:18:02;;;;;;;1.02;0.63;;;;;;;19.95;97.51;101554.56;4994067;28;99211;-27
2023/08/12 06:20:27;;;;;;;1.15;0.63;;;;;;;19.93;98.14;101546.44;4995087;28;96650;-27
2023/08/12 06:22:53;;;;;;;2.97;1.00;;;;;;;19.97;98.14;101540.66;4994615;28;96846;-27
2023/08/12 06:25:19;;;;;;;1.38;0.85;;;;;;;19.91;97.61;101540.19;4994184;28;99215;-27
2023/08/12 06:27:45;;;;;;;1.05;0.65;;;;;;;19.96;98.56;101541.69;4992794;28;100756;-27
2023/08/12 06:30:12;;;;;;;1.05;0.60;;;;;;;19.91;97.54;101540.19;4993098;28;96641;-27
2023/08/12 06:32:38;;;;;;;1.10;0.73;;;;;;;19.93;98.25;101538.19;4993480;28;96920;-27
2023/08/12 06:35:04;;;;;;;1.63;0.77;;;;;;;19.93;97.91;101529.06;4993999;28;98868;-28
2023/08/12 06:37:29;;;;;;;2.08;1.00;;;;;;;19.91;98.48;101533.84;4993476;28;97946;-27
2023/08/12 06:39:55;;;;;;;0.85;0.50;;;;;;;19.85;99.03;101535.25;4993905;28;96613;-27
2023/08/12 06:42:21;;;;;;;1.42;0.90;;;;;;;19.86;98.75;101536.13;4994106;28;96957;-27
2023/08/12 06:44:50;;;;;;;1.42;0.82;;;;;;;19.85;99.00;101523.38;4994153;28;97567;-27
2023/08/12 06:47:15;;;;;;;1.50;0.88;;;;;;;19.88;98.83;101528.63;4992488;28;101038;-27
2023/08/12 06:49:40;;;;;;;1.10;0.77;;;;;;;19.90;99.92;101532.97;4994535;28;96568;-27
2023/08/12 06:52:06;;;;;;;1.17;0.60;;;;;;;19.89;98.64;101539.47;4994411;28;96801;-27
2023/08/12 06:54:31;;;;;;;1.75;0.80;;;;;;;19.90;98.79;101527.47;4994068;28;97497;-27
2023/08/12 06:56:56;;;;;;;0.60;0.50;;;;;;;19.94;98.79;101537.16;4994040;28;99106;-27
2023/08/12 06:59:22;;;;;;;2.10;0.65;;;;;;;19.98;98.38;101540.53;4993945;28;96498;-27
2023/08/12 07:01:47;;;;;;;1.33;0.60;;;;;;;19.94;99.62;101537.16;4995455;28;96826;-27
2023/08/12 07:04:12;;;;;;;0.80;0.52;;;;;;;19.90;99.75;101549.47;4996551;28;99327;-30
2023/08/12 07:06:38;;;;;;;1.48;0.82;;;;;;;19.91;98.82;101534.72;4996429;28;97351;-27
2023/08/12 07:09:03;;;;;;;1.80;1.13;;;;;;;19.91;98.74;101529.19;4996198;28;96599;-27
2023/08/12 07:11:29;;;;;;;1.95;0.80;;;;;;;19.97;99.26;101538.78;4997572;28;96764;-28
2023/08/12 07:13:54;;;;;;;1.05;0.80;;;;;;;19.95;99.00;101535.31;4997157;28;97985;-27
2023/08/12 07:16:19;;;;;;;1.98;0.98;;;;;;;19.93;99.70;101538.19;4996813;28;99251;-28
2023/08/12 07:18:45;;;;;;;0.80;0.55;;;;;;;19.91;100.00;101545.69;4997417;28;96572;-27
2023/08/12 07:21:10;;;;;;;1.55;0.65;;;;;;;19.89;100.00;101555.97;4997999;28;97002;-27
2023/08/12 07:23:35;;;;;;;1.63;0.70;;;;;;;19.81;99.97;101558.53;4996949;28;97927;-27
2023/08/12 07:26:01;;;;;;;2.35;0.85;;;;;;;19.72;97.32;101571.22;4997036;28;97236;-27
2023/08/12 07:28:26;;;;;;;0.60;0.35;;;;;;;19.62;96.90;101558.41;4996494;28;96753;-27
2023/08/12 07:30:52;;;;;;;2.50;0.82;;;;;;;19.58;96.52;101554.19;4997280;28;96816;-28
2023/08/12 07:33:18;;;;;;;2.65;0.90;;;;;;;19.50;96.12;101560.38;4995410;28;100857;-28
2023/08/12 07:35:43;;;;;;;5.38;1.10;;;;;;;19.51;96.79;101557.47;4995185;28;100767;-27
2023/08/12 07:38:08;;;;;;;3.28;0.63;;;;;;;19.49;96.52;101564.09;4996816;28;98498;-27
2023/08/12 07:40:34;;;;;;;6.00;1.20;;;;;;;19.43;95.93;101560.03;4997052;28;96783;-27
2023/08/12 07:42:59;;;;;;;1.38;0.65;;;;;;;19.30;95.43;101557.47;4996710;28;97310;-27
2023/08/12 07:45:24;;;;;;;1.35;0.60;;;;;;;19.38;95.36;101570.56;4997119;28;96666;-27
2023/08/12 07:47:50;;;;;;;1.92;0.70;;;;;;;19.35;95.37;101564.44;4997037;28;96537;-29
2023/08/12 07:50:15;;;;;;;1.02;0.60;;;;;;;19.29;94.63;101580.47;4996536;28;96845;-27
2023/08/12 07:52:41;;;;;;;0.75;0.38;;;;;;;19.14;94.97;101567.19;4994862;28;97961;-27
2023/08/12 07:55:06;;;;;;;3.83;0.65;;;;;;;19.19;94.62;101585.03;4996485;28;97228;-27
2023/08/12 07:57:32;;;;;;;1.38;0.43;;;;;;;19.13;94.57;101582.78;4996866;28;96510;-27
2023/08/12 07:59:57;;;;;;;0.93;0.40;;;;;;;19.16;94.13;101603.63;4996461;28;96868;-28
2023/08/12 08:02:23;;;;;;;1.38;0.70;;;;;;;19.17;94.42;101599.91;4996419;28;97941;-27
2023/08/12 08:04:49;;;;;;;2.22;0.57;;;;;;;19.16;94.39;101596.25;4995977;28;97841;-27
2023/08/12 08:07:16;;;;;;;3.60;0.80;;;;;;;19.16;94.65;101601.75;4994901;28;96998;-27
2023/08/12 08:09:42;;;;;;;1.98;0.70;;;;;;;19.14;94.89;101595.53;4995529;28;96950;-26
2023/08/12 08:12:07;;;;;;;0.93;0.50;;;;;;;19.18;94.42;101587.88;4995971;28;99232;-27
2023/08/12 08:14:33;;;;;;;1.55;0.55;;;;;;;19.06;94.64;101568.72;4993886;28;100827;-27
2023/08/12 08:16:58;;;;;;;2.13;0.52;;;;;;;19.10;94.98;101570.19;4995878;28;96764;-27
2023/08/12 08:19:23;;;;;;;2.00;0.60;;;;;;;19.16;94.55;101589.91;4996273;28;96764;-27
2023/08/12 08:21:49;;;;;;;2.08;0.88;;;;;;;19.19;94.34;101587.78;4995980;28;97413;-27
2023/08/12 08:24:14;;;;;;;1.17;0.40;;;;;;;19.17;93.96;101572.44;4995881;28;99308;-27
2023/08/12 08:26:45;;;;;;;1.15;0.52;;;;;;;19.16;94.40;101584.41;4996075;28;96519;-27
2023/08/12 08:29:10;;;;;;;1.40;0.50;;;;;;;19.24;94.05;101599.22;4996664;28;96498;-27
2023/08/12 08:31:36;;;;;;;3.20;0.82;;;;;;;19.16;94.22;101593.50;4995995;28;97445;-27
2023/08/12 08:34:01;;;;;;;2.88;0.80;;;;;;;19.23;93.95;101588.34;4995978;28;97415;-27
2023/08/12 08:36:26;;;;;;;0.93;0.35;;;;;;;19.24;93.64;101588.22;4996190;28;96493;-27
2023/08/12 08:38:52;;;;;;;2.38;0.60;;;;;;;19.30;93.92;101592.31;4995980;28;96768;-28
2023/08/12 08:41:17;;;;;;;1.92;1.00;;;;;;;19.37;92.99;101588.03;4995441;28;98017;-27
2023/08/12 08:43:46;;;;;;;3.13;0.77;;;;;;;19.47;92.61;101580.75;4994231;28;99004;-27
2023/08/12 08:46:15;;;;;;;0.93;0.40;;;;;;;19.70;92.59;101581.47;4995916;28;96591;-27
2023/08/12 08:48:41;;;;;;;1.75;0.80;;;;;;;19.84;92.40;101573.91;4995987;28;96807;-28
2023/08/12 08:51:09;;;;;;;3.95;0.70;;;;;;;20.05;91.83;101568.34;4994054;28;100907;-27
2023/08/12 08:53:37;;;;;;;1.42;0.57;;;;;;;20.10;91.39;101566.91;4995524;28;98027;-27
2023/08/12 08:56:05;;;;;;;1.75;0.60;;;;;;;20.34;91.27;101563.81;4995830;28;96543;-27
2023/08/12 08:58:31;;;;;;;0.98;0.50;;;;;;;20.76;90.90;101568.25;4994528;28;97001;-28
2023/08/12 09:00:56;;;;;;;4.03;1.08;;;;;;;20.87;88.92;101561.75;4993946;28;101154;-27
2023/08/12 09:03:22;;;;;;;1.70;0.65;;;;;;;21.23;88.37;101570.31;4995280;28;99606;-27
2023/08/12 09:05:47;;;;;;;1.92;0.68;;;;;;;21.46;86.96;101574.50;4994897;28;96593;-27
2023/08/12 09:08:13;;;;;;;1.95;0.60;;;;;;;21.69;86.94;101576.91;4995206;28;96793;-27
2023/08/12 09:10:42;;;;;;;2.35;1.00;;;;;;;21.83;85.33;101579.19;4993735;28;99310;-28
2023/08/12 09:13:08;;;;;;;2.78;0.70;;;;;;;22.06;84.54;101586.09;4993877;28;100810;-28
2023/08/12 09:15:34;;;;;;;1.73;0.88;;;;;;;22.17;84.48;101596.06;4993966;28;96654;-27
2023/08/12 09:17:59;;;;;;;3.03;0.88;;;;;;;22.44;83.55;101600.75;4995399;28;96833;-27
2023/08/12 09:20:25;;;;;;;1.02;0.40;;;;;;;22.45;82.97;101602.50;4995099;28;97940;-27
2023/08/12 09:22:58;;;;;;;2.17;0.93;;;;;;;22.60;83.65;101591.81;4995338;28;99210;-29
2023/08/12 09:25:23;;;;;;;1.77;0.80;;;;;;;22.52;83.00;101588.94;4993884;28;96578;-27
2023/08/12 09:27:48;;;;;;;3.45;0.90;;;;;;;22.35;83.03;101596.16;4995743;28;96948;-27
2023/08/12 09:30:14;;;;;;;3.72;0.68;;;;;;;22.18;82.51;101613.50;4994373;28;97903;-27
2023/08/12 09:32:40;;;;;;;1.65;0.60;;;;;;;22.37;82.79;101610.69;4994750;28;99294;-27
2023/08/12 09:35:06;;;;;;;0.40;0.32;;;;;;;22.53;82.34;101604.50;4995300;28;96533;-27
2023/08/12 09:37:31;;;;;;;3.78;0.90;;;;;;;22.83;81.28;101611.56;4995119;28;96855;-27
2023/08/12 09:39:58;;;;;;;3.90;0.65;;;;;;;23.00;79.42;101607.13;4995115;28;97483;-28
2023/08/12 09:42:23;;;;;;;2.35;0.73;;;;;;;23.28;79.87;101618.09;4993399;28;100517;-27
2023/08/12 09:44:49;;;;;;;2.45;0.65;;;;;;;23.46;77.52;101613.41;4994863;28;96705;-27
2023/08/12 09:47:14;;;;;;;2.08;0.60;;;;;;;23.62;77.58;101615.44;4995355;28;96855;-27
2023/08/12 09:49:40;;;;;;;2.35;0.75;;;;;;;23.35;75.74;101605.38;4994470;28;99397;-27
2023/08/12 09:52:06;;;;;;;2.08;0.70;;;;;;;23.02;76.97;101616.09;4994879;28;97808;-27
2023/08/12 09:54:32;;;;;;;2.63;0.80;;;;;;;22.78;77.02;101626.88;4993095;28;96629;-27
2023/08/12 09:57:00;;;;;;;4.45;0.73;;;;;;;22.88;76.18;101620.28;4994951;28;96735;-27
2023/08/12 09:59:35;;;;;;;1.67;0.55;;;;;;;23.01;74.50;101630.97;4992737;28;100902;-27
2023/08/12 10:02:04;;;;;;;1.55;0.50;;;;;;;22.93;74.38;101616.16;4992835;28;100775;-27
2023/08/12 10:04:39;;;;;;;4.28;0.73;;;;;;;22.82;74.42;101609.81;4992004;28;96792;-29
2023/08/12 10:07:05;;;;;;;4.30;0.90;;;;;;;22.79;76.23;101612.91;4991223;28;97324;-27
2023/08/12 10:09:32;;;;;;;6.70;0.90;;;;;;;22.83;74.65;101619.84;4994024;28;97513;-28
2023/08/12 10:11:58;;;;;;;3.22;0.60;;;;;;;22.70;75.40;101613.84;4990909;28;100885;-29
2023/08/12 10:14:25;;;;;;;4.80;0.77;;;;;;;22.68;75.32;101611.22;4990945;28;96801;-30
2023/08/12 10:16:52;;;;;;;2.67;0.73;;;;;;;22.65;76.54;101618.97;4992311;28;97350;-26
2023/08/12 10:19:21;;;;;;;3.35;0.75;;;;;;;22.89;77.02;101621.13;4992538;28;100635;-27
2023/08/12 10:21:49;;;;;;;5.03;1.17;;;;;;;23.33;75.44;101618.47;4993774;28;99660;-27
2023/08/12 10:24:16;;;;;;;4.70;0.90;;;;;;;23.58;75.24;101599.34;4991451;28;96785;-28
2023/08/12 10:26:42;;;;;;;4.13;1.25;;;;;;;23.90;73.47;101609.78;4992448;28;97140;-27
2023/08/12 10:29:08;;;;;;;2.10;0.95;;;;;;;24.09;72.45;101619.75;4992116;28;101051;-28
2023/08/12 10:31:34;;;;;;;3.25;1.08;;;;;;;24.26;71.82;101604.09;4990966;28;101239;-27
2023/08/12 10:33:59;;;;;;;2.60;0.85;;;;;;;24.38;71.38;101616.59;4993010;28;96763;-27
2023/08/12 10:36:27;;;;;;;3.35;0.95;;;;;;;24.35;71.52;101615.03;4993364;28;96818;-33
2023/08/12 10:38:52;;;;;;;4.40;1.00;;;;;;;24.53;70.73;101606.69;4993498;28;101017;-29
2023/08/12 10:41:23;;;;;;;1.88;0.90;;;;;;;24.71;68.88;101602.91;4994419;28;97829;-29
2023/08/12 10:44:01;;;;;;;3.92;0.88;;;;;;;24.66;67.71;101603.41;4993026;28;96970;-31
2023/08/12 10:46:37;;;;;;;4.80;1.85;;;;;;;24.83;68.06;101607.09;4992694;28;97311;-28
2023/08/12 10:49:10;;;;;;;2.08;0.77;;;;;;;25.00;67.05;101606.13;5000856;28;101419;-27
2023/08/12 10:51:53;;;;;;;6.38;1.45;;;;;;;25.18;67.67;101605.13;4996635;28;99093;-28
2023/08/12 10:54:29;;;;;;;2.13;0.75;;;;;;;25.32;67.39;101603.56;5013892;28;96926;-27
2023/08/12 10:57:03;;;;;;;3.15;1.10;;;;;;;25.40;65.45;101607.19;5016353;28;96918;-27
2023/08/12 10:59:48;;;;;;;5.10;1.17;;;;;;;25.52;64.73;101604.09;5014411;28;101070;-29
2023/08/12 11:02:32;;;;;;;3.38;0.95;;;;;;;25.63;63.91;101595.41;5014896;28;99377;-31
2023/08/12 11:04:58;;;;;;;3.25;1.20;;;;;;;25.67;65.51;101599.59;5013433;28;96880;-29
2023/08/12 11:07:40;;;;;;;3.58;1.13;;;;;;;25.75;64.34;101599.56;5014607;28;97182;-27
2023/08/12 11:10:13;;;;;;;2.78;0.90;;;;;;;25.89;63.93;101595.22;5014341;28;98422;-28
2023/08/12 11:12:39;;;;;;;4.85;1.13;;;;;;;25.95;63.60;101600.06;5013309;28;101161;-28
2023/08/12 11:15:05;;;;;;;2.65;0.85;;;;;;;25.78;65.26;101604.75;5015165;28;96807;-28
2023/08/12 11:17:39;;;;;;;1.02;0.77;;;;;;;25.57;64.00;101609.97;5015737;28;96856;-29
2023/08/12 11:20:07;;;;;;;1.77;0.90;;;;;;;25.31;64.00;101611.00;5015478;28;100823;-28